createdAt,value
2018-02-22T00:03:04.366Z,-1.20
2018-02-22T00:13:18.213Z,-1.30
2018-02-22T00:18:23.108Z,-1.30
2018-02-22T00:23:26.716Z,-1.30
2018-02-22T00:28:29.424Z,-1.40
2018-02-22T00:33:32.984Z,-1.40
2018-02-22T00:38:38.683Z,-1.40
2018-02-22T00:43:44.678Z,-1.40
2018-02-22T00:48:47.640Z,-1.50
2018-02-22T00:53:50.758Z,-1.50
2018-02-22T00:58:55.044Z,-1.50
2018-02-22T01:09:08.110Z,-1.60
2018-02-22T01:14:11.446Z,-1.60
2018-02-22T01:19:17.386Z,-1.60
2018-02-22T01:29:28.811Z,-1.60
2018-02-22T01:34:33.095Z,-1.70
2018-02-22T01:39:36.746Z,-1.70
2018-02-22T01:44:41.255Z,-1.70
2018-02-22T01:59:59.057Z,-1.80
2018-02-22T02:05:04.028Z,-1.80
2018-02-22T02:10:07.838Z,-1.90
2018-02-22T02:15:11.494Z,-1.90
2018-02-22T02:20:14.812Z,-1.90
2018-02-22T02:25:22.069Z,-1.90
2018-02-22T02:30:28.889Z,-1.90
2018-02-22T02:40:42.454Z,-2.00
2018-02-22T02:45:45.581Z,-2.00
2018-02-22T02:50:49.078Z,-2.00
2018-02-22T02:55:56.309Z,-2.00
2018-02-22T03:01:00.583Z,-2.10
2018-02-22T03:06:06.101Z,-2.10
2018-02-22T03:11:10.665Z,-2.10
2018-02-22T03:16:14.295Z,-2.20
2018-02-22T03:21:18.888Z,-2.20
2018-02-22T03:26:26.821Z,-2.20
2018-02-22T03:31:30.022Z,-2.20
2018-02-22T03:36:32.999Z,-2.20
2018-02-22T03:41:36.893Z,-2.20
2018-02-22T03:46:39.932Z,-2.20
2018-02-22T03:51:44.315Z,-2.30
2018-02-22T03:56:48.112Z,-2.30
2018-02-22T04:07:02.118Z,-2.30
2018-02-22T04:12:06.373Z,-2.40
2018-02-22T04:17:11.032Z,-2.40
2018-02-22T04:22:24.845Z,-2.40
2018-02-22T04:32:36.072Z,-2.50
2018-02-22T04:47:56.479Z,-2.50
2018-02-22T04:53:00.263Z,-2.50
2018-02-22T04:58:05.862Z,-2.60
2018-02-22T05:13:29.866Z,-2.60
2018-02-22T05:23:40.450Z,-2.60
2018-02-22T05:28:46.161Z,-2.70
2018-02-22T05:33:49.456Z,-2.70
2018-02-22T05:38:55.199Z,-2.70
2018-02-22T05:49:07.735Z,-2.70
2018-02-22T05:54:12.202Z,-2.70
2018-02-22T05:59:15.602Z,-2.70
2018-02-22T06:04:19.259Z,-2.70
2018-02-22T06:09:22.229Z,-2.70
2018-02-22T06:14:25.051Z,-2.70
2018-02-22T06:19:27.814Z,-2.70
2018-02-22T06:24:32.414Z,-2.70
2018-02-22T06:29:35.492Z,-2.70
2018-02-22T06:34:38.365Z,-2.70
2018-02-22T06:39:42.323Z,-2.70
2018-02-22T06:44:45.341Z,-2.70
2018-02-22T06:49:49.515Z,-2.70
2018-02-22T06:54:55.481Z,-2.70
2018-02-22T06:59:59.986Z,-2.70
2018-02-22T07:05:03.971Z,-2.60
2018-02-22T07:10:07.732Z,-2.60
2018-02-22T07:15:11.219Z,-2.60
2018-02-22T07:20:15.730Z,-2.50
2018-02-22T07:25:20.172Z,-2.50
2018-02-22T07:30:23.671Z,-2.40
2018-02-22T07:35:27.223Z,-2.30
2018-02-22T07:40:32.058Z,-2.30
2018-02-22T07:45:37.499Z,-2.20
2018-02-22T07:55:52.848Z,-2.00
2018-02-22T08:00:57.576Z,-1.90
2018-02-22T08:06:02.729Z,-1.90
2018-02-22T08:11:09.247Z,-1.90
2018-02-22T08:16:15.486Z,-1.80
2018-02-22T08:21:19.453Z,-1.80
2018-02-22T08:26:26.225Z,-1.70
2018-02-22T08:31:30.116Z,-1.60
2018-02-22T08:36:34.743Z,-1.60
2018-02-22T08:41:40.028Z,-1.50
2018-02-22T08:46:44.285Z,-1.40
2018-02-22T08:51:48.556Z,-1.30
2018-02-22T08:56:52.545Z,-1.20
2018-02-22T09:17:18.688Z,-0.50
2018-02-22T09:22:25.478Z,-0.30
2018-02-22T09:27:32.373Z,0.00
2018-02-22T09:32:35.404Z,0.20
2018-02-22T09:42:46.114Z,0.60
2018-02-22T09:47:50.514Z,0.90
2018-02-22T09:52:55.663Z,0.90
2018-02-22T09:57:59.940Z,1.10
2018-02-22T10:03:04.504Z,1.10
2018-02-22T10:08:08.221Z,1.10
2018-02-22T10:13:14.178Z,1.10
2018-02-22T10:18:18.908Z,1.20
2018-02-22T10:23:21.852Z,1.40
2018-02-22T10:28:24.953Z,1.50
2018-02-22T10:33:29.020Z,1.70
2018-02-22T10:38:33.236Z,1.80
2018-02-22T10:43:40.349Z,2.00
2018-02-22T10:48:45.259Z,2.00
2018-02-22T10:53:48.538Z,2.00
2018-02-22T10:58:57.996Z,2.00
2018-02-22T11:09:14.399Z,2.40
2018-02-22T11:14:17.573Z,2.40
2018-02-22T11:19:22.695Z,2.60
2018-02-22T11:24:27.454Z,2.80
2018-02-22T11:34:40.978Z,2.90
2018-02-22T11:55:14.366Z,3.30
2018-02-22T12:00:20.378Z,3.40
2018-02-22T12:10:33.215Z,3.50
2018-02-22T12:20:48.464Z,3.60
2018-02-22T12:25:52.429Z,3.70
2018-02-22T12:30:56.008Z,3.60
2018-02-22T12:36:01.067Z,3.70
2018-02-22T12:41:05.804Z,3.50
2018-02-22T12:46:13.497Z,3.40
2018-02-22T12:51:18.170Z,3.40
2018-02-22T13:01:31.352Z,3.20
2018-02-22T13:06:35.457Z,3.10
2018-02-22T13:11:39.926Z,3.00
2018-02-22T13:16:49.067Z,3.00
2018-02-22T13:21:55.524Z,3.10
2018-02-22T13:27:04.054Z,3.00
2018-02-22T13:32:12.350Z,3.00
2018-02-22T13:37:32.292Z,3.00
2018-02-22T13:42:39.114Z,3.00
2018-02-22T13:47:43.185Z,2.90
2018-02-22T13:52:56.626Z,2.90
2018-02-22T14:03:18.339Z,2.90
2018-02-22T14:08:35.479Z,2.80
2018-02-22T14:13:39.484Z,2.80
2018-02-22T14:18:44.270Z,2.70
2018-02-22T14:23:48.927Z,2.80
2018-02-22T14:28:56.358Z,2.70
2018-02-22T14:33:59.429Z,2.60
2018-02-22T14:39:06.836Z,2.70
2018-02-22T14:44:11.213Z,2.70
2018-02-22T14:49:17.550Z,2.70
2018-02-22T14:59:45.676Z,2.80
2018-02-22T15:10:04.491Z,2.70
2018-02-22T15:20:19.470Z,2.60
2018-02-22T15:25:25.208Z,2.60
2018-02-22T15:35:35.331Z,2.50
2018-02-22T15:45:46.998Z,2.40
2018-02-22T15:56:01.799Z,2.30
2018-02-22T16:01:05.162Z,2.30
2018-02-22T16:06:09.863Z,2.20
2018-02-22T16:11:13.392Z,2.10
2018-02-22T16:16:18.011Z,2.00
2018-02-22T16:21:25.184Z,2.00
2018-02-22T16:26:39.091Z,1.90
2018-02-22T16:31:42.706Z,1.80
2018-02-22T16:36:54.185Z,1.80
2018-02-22T16:41:57.311Z,1.70
2018-02-22T16:47:03.662Z,1.60
2018-02-22T16:52:06.344Z,1.50
2018-02-22T16:57:09.009Z,1.50
2018-02-22T17:02:15.403Z,1.40
2018-02-22T17:07:22.007Z,1.30
2018-02-22T17:17:43.717Z,1.20
2018-02-22T17:22:47.316Z,1.00
2018-02-22T17:27:57.424Z,1.00
2018-02-22T17:33:00.227Z,1.00
2018-02-22T17:38:07.501Z,0.90
2018-02-22T17:43:14.323Z,0.90
2018-02-22T17:48:18.003Z,0.80
2018-02-22T17:53:22.950Z,0.80
2018-02-22T17:58:25.877Z,0.70
2018-02-22T18:03:31.345Z,0.60
2018-02-22T18:08:34.375Z,0.60
2018-02-22T18:13:40.451Z,0.60
2018-02-22T18:18:45.852Z,0.50
2018-02-22T18:23:50.142Z,0.50
2018-02-22T18:28:53.233Z,0.50
2018-02-22T18:33:59.703Z,0.40
2018-02-22T18:39:11.766Z,0.40
2018-02-22T18:44:21.535Z,0.30
2018-02-22T18:49:25.343Z,0.20
2018-02-22T18:54:30.765Z,0.20
2018-02-22T18:59:35.624Z,0.20
2018-02-22T19:04:39.193Z,0.20
2018-02-22T19:09:44.019Z,0.20
2018-02-22T19:14:47.485Z,0.20
2018-02-22T19:19:54.364Z,0.10
2018-02-22T19:24:59.111Z,0.10
2018-02-22T19:30:06.395Z,0.10
2018-02-22T19:35:09.876Z,0.10
2018-02-22T19:40:14.283Z,0.00
2018-02-22T19:45:16.988Z,0.00
2018-02-22T19:50:19.778Z,0.00
2018-02-22T19:55:22.712Z,0.00
2018-02-22T20:00:25.688Z,-0.10
2018-02-22T20:05:30.386Z,-0.10
2018-02-22T20:10:35.246Z,-0.20
2018-02-22T20:15:39.968Z,-0.20
2018-02-22T20:20:45.436Z,-0.30
2018-02-22T20:25:49.383Z,-0.30
2018-02-22T20:30:56.192Z,-0.30
2018-02-22T20:36:01.863Z,-0.40
2018-02-22T20:41:05.272Z,-0.40
2018-02-22T20:46:10.855Z,-0.50
2018-02-22T20:56:23.000Z,-0.50
2018-02-22T21:01:26.594Z,-0.50
2018-02-22T21:06:30.075Z,-0.50
2018-02-22T21:11:33.726Z,-0.60
2018-02-22T21:16:38.118Z,-0.60
2018-02-22T21:26:52.384Z,-0.60
2018-02-22T21:31:56.626Z,-0.60
2018-02-22T21:36:59.926Z,-0.60
2018-02-22T21:42:03.594Z,-0.70
2018-02-22T21:52:15.029Z,-0.70
2018-02-22T21:57:18.313Z,-0.70
2018-02-22T22:02:24.000Z,-0.80
2018-02-22T22:07:28.820Z,-0.80
2018-02-22T22:12:35.062Z,-0.80
2018-02-22T22:17:38.336Z,-0.90
2018-02-22T22:22:44.255Z,-0.90
2018-02-22T22:27:47.627Z,-0.90
2018-02-22T22:32:55.462Z,-1.00
2018-02-22T22:37:59.488Z,-1.00
2018-02-22T22:43:06.037Z,-1.10
2018-02-22T22:48:10.550Z,-1.10
2018-02-22T22:53:20.933Z,-1.10
2018-02-22T22:58:24.002Z,-1.10
2018-02-22T23:03:27.762Z,-1.20
2018-02-22T23:08:32.745Z,-1.20
2018-02-22T23:13:37.123Z,-1.20
2018-02-22T23:18:40.336Z,-1.30
2018-02-22T23:23:43.990Z,-1.30
2018-02-22T23:28:47.383Z,-1.30
2018-02-22T23:33:53.797Z,-1.40
2018-02-22T23:38:57.796Z,-1.40
2018-02-22T23:49:08.985Z,-1.50
2018-02-22T23:54:12.185Z,-1.50
2018-02-22T23:59:16.538Z,-1.50
